Time;durP1;ratioP1;P1;durP2;ratioP2;P2;SDS_P1;SDS_P2;PMS_P1;PMS_P2;Temp;Humidity;BMP_temperature;BMP_pressure;BME280_temperature;BME280_humidity;BME280_pressure;Samples;Min_cycle;Max_cycle;Signal;HPM_P1;HPM_P2
2023/11/22 00:02:10;;;;;;;5.82;5.22;;;2.30;99.90;;;;;;5094381;28;20319;-63
2023/11/22 00:04:36;;;;;;;6.35;5.15;;;2.20;99.90;;;;;;5095214;28;20211;-63
2023/11/22 00:07:03;;;;;;;6.03;4.65;;;2.20;99.90;;;;;;5095027;28;20665;-64
2023/11/22 00:09:30;;;;;;;6.32;5.20;;;2.20;99.90;;;;;;5096090;28;20204;-63
2023/11/22 00:11:56;;;;;;;6.70;5.18;;;2.20;99.90;;;;;;5098503;28;20217;-63
2023/11/22 00:14:24;;;;;;;5.38;4.68;;;2.20;99.90;;;;;;5098283;28;20208;-63
2023/11/22 00:16:51;;;;;;;6.20;5.10;;;2.20;99.90;;;;;;5099810;28;20220;-62
2023/11/22 00:19:22;;;;;;;11.05;6.72;;;2.10;99.90;;;;;;5099220;28;20215;-62
2023/11/22 00:21:48;;;;;;;7.47;5.38;;;2.10;99.90;;;;;;5099749;28;20224;-63
2023/11/22 00:24:15;;;;;;;8.63;5.75;;;2.10;99.90;;;;;;5098136;28;20196;-62
2023/11/22 00:26:42;;;;;;;9.07;5.50;;;2.10;99.90;;;;;;5097764;28;20211;-63
2023/11/22 00:29:09;;;;;;;7.10;5.60;;;2.00;99.90;;;;;;5100198;28;20249;-62
2023/11/22 00:31:37;;;;;;;6.53;5.35;;;2.00;99.90;;;;;;5100403;28;20220;-62
2023/11/22 00:34:04;;;;;;;7.22;5.70;;;1.90;99.90;;;;;;5101943;28;20196;-63
2023/11/22 00:36:30;;;;;;;8.00;5.55;;;1.90;99.90;;;;;;5101968;28;20211;-63
2023/11/22 00:38:57;;;;;;;7.78;5.53;;;1.90;99.90;;;;;;5100871;28;20263;-63
2023/11/22 00:41:24;;;;;;;8.70;5.95;;;1.80;99.90;;;;;;5101905;28;20210;-62
2023/11/22 00:43:51;;;;;;;6.30;5.28;;;1.80;99.90;;;;;;5100267;28;20215;-62
2023/11/22 00:46:17;;;;;;;13.75;5.20;;;1.80;99.90;;;;;;5100106;28;20219;-62
2023/11/22 00:48:45;;;;;;;8.60;5.57;;;1.70;99.90;;;;;;5099872;28;20223;-62
2023/11/22 00:51:12;;;;;;;5.93;4.65;;;1.70;99.90;;;;;;5099732;28;20204;-63
2023/11/22 00:53:39;;;;;;;10.65;4.72;;;1.70;99.90;;;;;;5100216;28;20201;-62
2023/11/22 00:56:07;;;;;;;8.43;5.88;;;1.70;99.90;;;;;;5099991;28;20227;-62
2023/11/22 00:58:34;;;;;;;7.50;5.05;;;1.70;99.90;;;;;;5098726;28;20277;-63
2023/11/22 01:01:00;;;;;;;7.60;5.18;;;1.70;99.90;;;;;;5098406;28;20239;-64
2023/11/22 01:03:27;;;;;;;6.40;4.55;;;1.70;99.90;;;;;;5097680;28;20232;-63
2023/11/22 01:05:55;;;;;;;5.82;4.28;;;1.60;99.90;;;;;;5097498;28;20211;-62
2023/11/22 01:08:22;;;;;;;6.75;4.72;;;1.60;99.90;;;;;;5096768;28;20246;-64
2023/11/22 01:10:48;;;;;;;8.85;5.15;;;1.60;99.90;;;;;;5097816;28;20529;-63
2023/11/22 01:13:15;;;;;;;8.57;5.55;;;1.60;99.90;;;;;;5097366;28;20246;-63
2023/11/22 01:15:44;;;;;;;9.07;5.68;;;1.60;99.90;;;;;;5097813;28;20203;-62
2023/11/22 01:18:11;;;;;;;10.38;5.90;;;1.50;99.90;;;;;;5096909;28;20280;-63
2023/11/22 01:20:37;;;;;;;8.30;5.15;;;1.50;99.90;;;;;;5097104;28;20200;-63
2023/11/22 01:23:05;;;;;;;6.70;5.35;;;1.50;99.90;;;;;;5097799;28;20225;-63
2023/11/22 01:25:32;;;;;;;6.40;5.25;;;1.50;99.90;;;;;;5096805;28;20228;-63
2023/11/22 01:28:00;;;;;;;7.70;5.25;;;1.50;99.90;;;;;;5096642;28;20248;-63
2023/11/22 01:30:28;;;;;;;6.85;5.57;;;1.40;99.90;;;;;;5096727;28;20268;-62
2023/11/22 01:32:55;;;;;;;9.52;6.13;;;1.40;99.90;;;;;;5096936;28;20224;-62
2023/11/22 01:35:23;;;;;;;10.55;5.25;;;1.40;99.90;;;;;;5098183;28;20201;-63
2023/11/22 01:37:50;;;;;;;8.13;5.55;;;1.40;99.90;;;;;;5098255;28;20220;-63
2023/11/22 01:40:20;;;;;;;9.82;5.28;;;1.40;99.90;;;;;;5097975;28;20246;-63
2023/11/22 01:42:47;;;;;;;8.35;5.97;;;1.30;99.90;;;;;;5099479;28;20224;-62
2023/11/22 01:45:14;;;;;;;6.90;4.70;;;1.30;99.90;;;;;;5100318;28;20200;-62
2023/11/22 01:47:40;;;;;;;9.73;5.63;;;1.30;99.90;;;;;;5101202;28;20204;-62
2023/11/22 01:50:09;;;;;;;8.48;4.95;;;1.30;99.90;;;;;;5102890;28;20200;-62
2023/11/22 01:52:36;;;;;;;7.53;5.20;;;1.30;99.90;;;;;;5104220;28;20231;-63
2023/11/22 01:55:04;;;;;;;6.13;4.45;;;1.30;99.90;;;;;;5104168;28;20208;-63
2023/11/22 01:57:33;;;;;;;5.85;4.25;;;1.30;99.90;;;;;;5105489;28;20243;-63
2023/11/22 02:00:01;;;;;;;10.90;5.45;;;1.20;99.90;;;;;;5105260;28;20200;-63
2023/11/22 02:02:28;;;;;;;7.38;4.85;;;1.20;99.90;;;;;;5104335;28;20232;-62
2023/11/22 02:04:54;;;;;;;6.30;4.68;;;1.20;99.90;;;;;;5105582;28;20204;-63
2023/11/22 02:07:21;;;;;;;5.85;4.70;;;1.10;99.90;;;;;;5103727;28;20200;-63
2023/11/22 02:09:49;;;;;;;10.82;6.05;;;1.10;99.90;;;;;;5102998;28;20219;-63
2023/11/22 02:12:16;;;;;;;6.35;5.20;;;1.10;99.90;;;;;;5101275;28;20220;-63
2023/11/22 02:14:44;;;;;;;7.28;4.85;;;1.00;99.90;;;;;;5102150;28;20208;-63
2023/11/22 02:17:11;;;;;;;6.88;4.50;;;1.00;99.90;;;;;;5102951;28;20201;-63
2023/11/22 02:19:37;;;;;;;7.60;4.80;;;1.00;99.90;;;;;;5105282;28;20211;-63
2023/11/22 02:22:04;;;;;;;8.25;5.13;;;0.90;99.90;;;;;;5103021;28;20307;-62
2023/11/22 02:24:34;;;;;;;8.27;5.40;;;0.90;99.90;;;;;;5103270;28;20214;-63
2023/11/22 02:27:01;;;;;;;6.90;4.75;;;0.90;99.90;;;;;;5103014;28;20200;-62
2023/11/22 02:29:28;;;;;;;13.13;5.50;;;0.80;99.90;;;;;;5101365;28;20200;-62
2023/11/22 02:31:55;;;;;;;9.32;4.88;;;0.80;99.90;;;;;;5100355;28;20228;-63
2023/11/22 02:34:22;;;;;;;8.38;5.47;;;0.80;99.90;;;;;;5098133;28;20283;-62
2023/11/22 02:36:48;;;;;;;9.48;5.18;;;0.80;99.90;;;;;;5098397;28;20682;-62
2023/11/22 02:39:16;;;;;;;8.65;4.95;;;0.80;99.90;;;;;;5097723;28;20223;-63
2023/11/22 02:41:44;;;;;;;6.15;4.70;;;0.70;99.90;;;;;;5101140;28;20738;-63
2023/11/22 02:44:14;;;;;;;6.35;4.47;;;0.70;99.90;;;;;;5103372;28;20208;-63
2023/11/22 02:46:41;;;;;;;9.27;5.45;;;0.70;99.90;;;;;;5098632;28;20229;-62
2023/11/22 02:49:08;;;;;;;8.52;5.25;;;0.70;99.90;;;;;;5102891;28;20211;-62
2023/11/22 02:51:35;;;;;;;10.80;5.40;;;0.70;99.90;;;;;;5102704;28;20216;-63
2023/11/22 02:54:04;;;;;;;7.88;4.68;;;0.70;99.90;;;;;;5102527;28;20227;-63
2023/11/22 02:56:31;;;;;;;6.68;4.90;;;0.70;99.90;;;;;;5103987;28;20196;-64
2023/11/22 02:58:59;;;;;;;6.18;4.95;;;0.70;99.90;;;;;;5103426;28;20243;-62
2023/11/22 03:01:26;;;;;;;7.28;4.85;;;0.70;99.90;;;;;;5103451;28;20604;-63
2023/11/22 03:03:52;;;;;;;7.85;4.97;;;0.70;99.90;;;;;;5103338;28;20185;-63
2023/11/22 03:06:19;;;;;;;5.88;4.70;;;0.70;99.90;;;;;;5103349;28;20208;-63
2023/11/22 03:08:46;;;;;;;8.52;4.47;;;0.70;99.90;;;;;;5100506;28;20219;-62
2023/11/22 03:11:13;;;;;;;5.80;4.32;;;0.80;99.90;;;;;;5097574;28;20204;-62
2023/11/22 03:13:39;;;;;;;7.43;4.70;;;0.80;99.90;;;;;;5098388;28;20669;-62
2023/11/22 03:16:08;;;;;;;6.32;5.03;;;0.90;99.90;;;;;;5104343;28;20200;-63
2023/11/22 03:18:36;;;;;;;6.80;4.45;;;0.90;99.90;;;;;;5106072;28;20216;-62
2023/11/22 03:21:02;;;;;;;10.30;4.88;;;1.00;99.90;;;;;;5109221;28;20208;-62
2023/11/22 03:23:29;;;;;;;9.02;4.88;;;1.00;99.90;;;;;;5106207;28;20243;-63
2023/11/22 03:25:56;;;;;;;7.47;5.05;;;1.10;99.90;;;;;;5102438;28;20219;-63
2023/11/22 03:28:22;;;;;;;6.78;4.72;;;1.10;99.90;;;;;;5099331;28;20199;-64
2023/11/22 03:30:48;;;;;;;5.78;4.70;;;1.10;99.90;;;;;;5098248;28;20200;-62
2023/11/22 03:33:16;;;;;;;5.90;4.57;;;1.10;99.90;;;;;;5098684;28;20220;-62
2023/11/22 03:35:43;;;;;;;6.90;5.30;;;1.00;99.90;;;;;;5099767;28;20450;-62
2023/11/22 03:38:10;;;;;;;7.03;4.75;;;1.00;99.90;;;;;;5100860;28;20220;-62
2023/11/22 03:40:36;;;;;;;6.70;4.78;;;0.90;99.90;;;;;;5104366;28;20214;-63
2023/11/22 03:43:03;;;;;;;7.70;5.65;;;0.90;99.90;;;;;;5102616;28;20226;-63
2023/11/22 03:45:30;;;;;;;5.53;4.30;;;0.80;99.90;;;;;;5103602;28;20204;-62
2023/11/22 03:47:56;;;;;;;6.45;4.45;;;0.90;99.90;;;;;;5103411;28;20211;-63
2023/11/22 03:50:24;;;;;;;8.18;5.15;;;0.80;99.90;;;;;;5101713;28;20219;-62
2023/11/22 03:52:51;;;;;;;9.68;4.65;;;0.90;99.90;;;;;;5106813;28;20219;-63
2023/11/22 03:55:18;;;;;;;5.13;3.60;;;0.90;99.90;;;;;;5106108;28;20211;-63
2023/11/22 03:57:44;;;;;;;5.95;4.40;;;0.90;99.90;;;;;;5094032;28;20200;-62
2023/11/22 04:00:13;;;;;;;5.97;4.57;;;1.00;99.90;;;;;;5094043;28;20204;-63
2023/11/22 04:02:41;;;;;;;5.90;4.20;;;1.00;99.90;;;;;;5097614;28;20228;-62
2023/11/22 04:05:09;;;;;;;6.00;4.72;;;1.00;99.90;;;;;;5103304;28;20589;-63
2023/11/22 04:07:38;;;;;;;6.03;3.92;;;1.00;99.90;;;;;;5094579;28;20693;-63
2023/11/22 04:12:33;;;;;;;8.00;3.58;;;0.90;99.90;;;;;;5100956;27;1228050;-63
2023/11/22 04:15:00;;;;;;;5.70;3.90;;;0.90;99.90;;;;;;5131509;28;20204;-62
2023/11/22 04:17:27;;;;;;;4.65;4.00;;;0.90;99.90;;;;;;5131957;28;20226;-62
2023/11/22 04:19:53;;;;;;;6.07;4.40;;;0.90;99.90;;;;;;5131405;28;20214;-63
2023/11/22 04:22:20;;;;;;;5.70;4.50;;;0.90;99.90;;;;;;5130994;27;20211;-63
2023/11/22 04:24:47;;;;;;;7.28;4.65;;;0.80;99.90;;;;;;5131819;28;20207;-63
2023/11/22 04:27:14;;;;;;;6.10;4.07;;;0.80;99.90;;;;;;5130959;28;20568;-63
2023/11/22 04:29:42;;;;;;;5.75;4.22;;;0.80;99.90;;;;;;5131200;28;20763;-63
2023/11/22 04:32:09;;;;;;;5.65;3.85;;;0.80;99.90;;;;;;5130897;27;20227;-63
2023/11/22 04:34:36;;;;;;;7.35;4.90;;;0.70;99.90;;;;;;5131014;28;20199;-63
2023/11/22 04:37:03;;;;;;;5.35;3.95;;;0.70;99.90;;;;;;5130784;28;20653;-63
2023/11/22 04:39:30;;;;;;;7.88;3.88;;;0.70;99.90;;;;;;5131144;28;20289;-63
2023/11/22 04:41:56;;;;;;;6.03;4.28;;;0.60;99.90;;;;;;5130903;27;20218;-63
2023/11/22 04:44:23;;;;;;;6.57;4.45;;;0.60;99.90;;;;;;5130988;28;20199;-63
2023/11/22 04:46:51;;;;;;;6.60;4.68;;;0.60;99.90;;;;;;5130921;28;20225;-63
2023/11/22 04:49:18;;;;;;;9.35;4.00;;;0.60;99.90;;;;;;5130500;28;20612;-62
2023/11/22 04:51:45;;;;;;;7.88;4.40;;;0.60;99.90;;;;;;5130699;27;20227;-62
2023/11/22 04:54:12;;;;;;;5.53;4.10;;;0.50;99.90;;;;;;5130503;28;20199;-63
2023/11/22 04:56:39;;;;;;;9.05;4.28;;;0.50;99.90;;;;;;5130407;28;20202;-63
2023/11/22 04:59:05;;;;;;;7.93;4.70;;;0.50;99.90;;;;;;5130671;28;20199;-62
2023/11/22 05:01:33;;;;;;;7.70;5.07;;;0.50;99.90;;;;;;5129551;22;20228;-62
2023/11/22 05:04:01;;;;;;;6.32;4.40;;;0.50;99.90;;;;;;5090359;28;20208;-63
2023/11/22 05:06:29;;;;;;;6.80;4.72;;;0.50;99.90;;;;;;5090245;28;20201;-62
2023/11/22 05:08:55;;;;;;;7.82;4.50;;;0.50;99.90;;;;;;5090968;28;20377;-64
2023/11/22 05:11:22;;;;;;;7.43;4.05;;;0.50;99.90;;;;;;5090228;28;20228;-63
2023/11/22 05:13:50;;;;;;;5.70;3.90;;;0.40;99.90;;;;;;5090174;28;20584;-63
2023/11/22 05:16:16;;;;;;;5.57;4.15;;;0.40;99.90;;;;;;5093217;28;20204;-63
2023/11/22 05:18:44;;;;;;;4.65;4.15;;;0.40;99.90;;;;;;5097111;28;20538;-63
2023/11/22 05:21:12;;;;;;;5.63;4.40;;;0.40;99.90;;;;;;5095993;28;20212;-63
2023/11/22 05:23:38;;;;;;;4.65;4.05;;;0.30;99.90;;;;;;5081491;28;20207;-63
2023/11/22 05:26:05;;;;;;;5.68;4.45;;;0.30;99.90;;;;;;5076619;28;20572;-63
2023/11/22 05:28:33;;;;;;;6.68;4.88;;;0.30;99.90;;;;;;5076427;28;20212;-62
2023/11/22 05:31:00;;;;;;;5.63;4.18;;;0.30;99.90;;;;;;5076099;28;20236;-64
2023/11/22 05:33:26;;;;;;;7.32;4.88;;;0.30;99.90;;;;;;5076253;28;20212;-62
2023/11/22 05:35:53;;;;;;;8.15;4.25;;;0.20;99.90;;;;;;5077733;28;20666;-63
2023/11/22 05:38:21;;;;;;;4.65;3.60;;;0.20;99.90;;;;;;5079428;28;20201;-63
2023/11/22 05:40:48;;;;;;;5.88;4.22;;;0.20;99.90;;;;;;5078193;28;20200;-63
2023/11/22 05:43:15;;;;;;;5.70;4.40;;;0.20;99.90;;;;;;5076749;28;20226;-64
2023/11/22 05:45:42;;;;;;;7.03;4.10;;;0.20;99.90;;;;;;5076195;28;20213;-62
2023/11/22 05:48:08;;;;;;;8.55;4.35;;;0.10;99.90;;;;;;5075703;28;20220;-63
2023/11/22 05:50:35;;;;;;;6.20;3.95;;;0.20;99.90;;;;;;5076476;28;20205;-63
2023/11/22 05:53:02;;;;;;;4.50;3.67;;;0.10;99.90;;;;;;5075534;28;20200;-64
2023/11/22 05:55:31;;;;;;;4.85;4.38;;;0.10;99.90;;;;;;5075594;28;20266;-64
2023/11/22 05:57:57;;;;;;;8.82;4.47;;;0.20;99.90;;;;;;5075774;28;20212;-64
2023/11/22 06:00:24;;;;;;;8.02;5.15;;;0.10;99.90;;;;;;5075389;28;20205;-63
2023/11/22 06:02:51;;;;;;;6.25;4.28;;;0.10;99.90;;;;;;5074765;28;20256;-61
2023/11/22 06:05:18;;;;;;;9.20;4.30;;;0.10;99.90;;;;;;5075429;28;20201;-62
2023/11/22 06:07:45;;;;;;;7.68;3.92;;;0.10;99.90;;;;;;5075051;28;20580;-63
2023/11/22 06:10:13;;;;;;;5.72;4.22;;;0.10;99.90;;;;;;5075202;28;20284;-63
2023/11/22 06:12:41;;;;;;;8.10;4.88;;;0.10;99.90;;;;;;5075308;28;20221;-62
2023/11/22 06:15:09;;;;;;;4.70;3.72;;;0.20;99.90;;;;;;5075486;28;20196;-62
2023/11/22 06:17:36;;;;;;;6.22;4.70;;;0.20;99.90;;;;;;5074977;28;20690;-61
2023/11/22 06:20:03;;;;;;;7.60;4.72;;;0.10;99.90;;;;;;5075142;28;20211;-61
2023/11/22 06:22:30;;;;;;;5.75;5.15;;;0.10;99.90;;;;;;5075112;28;20677;-62
2023/11/22 06:24:57;;;;;;;7.57;5.03;;;0.10;99.90;;;;;;5075275;28;20254;-62
2023/11/22 06:27:24;;;;;;;5.18;4.68;;;0.10;99.90;;;;;;5074819;28;20201;-63
2023/11/22 06:29:52;;;;;;;7.20;4.78;;;0.10;99.90;;;;;;5075025;28;20201;-62
2023/11/22 06:32:18;;;;;;;6.22;4.85;;;0.10;99.90;;;;;;5074656;28;20221;-63
2023/11/22 06:34:45;;;;;;;6.80;4.20;;;0.10;99.90;;;;;;5073898;28;20197;-63
2023/11/22 06:37:13;;;;;;;6.75;5.07;;;0.00;99.90;;;;;;5076611;28;20205;-63
2023/11/22 06:39:39;;;;;;;5.68;4.30;;;0.10;99.90;;;;;;5089460;28;20211;-62
2023/11/22 06:42:06;;;;;;;5.93;4.45;;;0.10;99.90;;;;;;5074947;28;20742;-62
2023/11/22 06:44:34;;;;;;;7.72;5.07;;;0.10;99.90;;;;;;5075347;28;20201;-64
2023/11/22 06:47:02;;;;;;;6.28;4.40;;;0.10;99.90;;;;;;5074977;28;20254;-66
2023/11/22 06:49:29;;;;;;;5.35;4.20;;;0.10;99.90;;;;;;5074982;28;20239;-65
2023/11/22 06:51:56;;;;;;;9.18;5.53;;;0.10;99.90;;;;;;5075589;28;20220;-63
2023/11/22 06:54:22;;;;;;;7.07;4.45;;;0.10;99.90;;;;;;5074422;28;20674;-64
2023/11/22 06:56:50;;;;;;;4.88;4.40;;;0.10;99.90;;;;;;5075015;28;20201;-63
2023/11/22 06:59:16;;;;;;;8.48;4.80;;;0.10;99.90;;;;;;5074543;28;20292;-63
2023/11/22 07:01:43;;;;;;;6.47;5.25;;;0.10;99.90;;;;;;5074499;28;20228;-63
2023/11/22 07:04:11;;;;;;;8.52;4.57;;;0.10;99.90;;;;;;5074525;28;20204;-62
2023/11/22 07:06:39;;;;;;;8.77;5.00;;;0.10;99.90;;;;;;5074352;28;20197;-62
2023/11/22 07:09:09;;;;;;;6.75;4.65;;;0.10;99.90;;;;;;5074496;28;20284;-63
2023/11/22 07:11:36;;;;;;;6.45;4.63;;;0.20;99.90;;;;;;5074504;28;20229;-62
2023/11/22 07:14:04;;;;;;;7.20;4.30;;;0.20;99.90;;;;;;5074465;28;20197;-64
2023/11/22 07:16:32;;;;;;;7.30;4.50;;;0.30;99.90;;;;;;5074074;28;20675;-63
2023/11/22 07:18:58;;;;;;;6.40;4.68;;;0.30;99.90;;;;;;5074348;28;20664;-63
2023/11/22 07:21:26;;;;;;;8.15;4.90;;;0.30;99.90;;;;;;5074190;28;20217;-63
2023/11/22 07:23:53;;;;;;;5.53;4.32;;;0.30;99.90;;;;;;5074141;28;20205;-63
2023/11/22 07:26:20;;;;;;;7.68;4.90;;;0.40;99.90;;;;;;5074676;28;20201;-62
2023/11/22 07:28:47;;;;;;;7.43;4.70;;;0.40;99.90;;;;;;5074284;28;20260;-63
2023/11/22 07:31:14;;;;;;;5.93;4.30;;;0.50;99.90;;;;;;5078823;28;20308;-63
2023/11/22 07:33:41;;;;;;;6.78;4.05;;;0.50;99.90;;;;;;5080306;28;20292;-63
2023/11/22 07:36:09;;;;;;;3.60;3.20;;;0.60;99.90;;;;;;5077882;28;20189;-62
2023/11/22 07:38:37;;;;;;;7.85;5.82;;;0.70;99.90;;;;;;5076415;28;20201;-63
2023/11/22 07:41:04;;;;;;;5.85;4.00;;;0.70;99.90;;;;;;5074420;28;20220;-62
2023/11/22 07:43:30;;;;;;;6.45;4.45;;;0.80;99.90;;;;;;5074903;28;20220;-62
2023/11/22 07:45:59;;;;;;;6.93;5.07;;;0.90;99.90;;;;;;5074089;28;20201;-62
2023/11/22 07:48:26;;;;;;;7.72;4.63;;;0.90;99.90;;;;;;5074265;28;20208;-61
2023/11/22 07:50:54;;;;;;;5.68;4.50;;;1.00;99.90;;;;;;5075046;28;20561;-61
2023/11/22 07:53:21;;;;;;;5.05;4.05;;;1.10;99.90;;;;;;5074632;28;20282;-62
2023/11/22 07:55:49;;;;;;;5.65;4.22;;;1.10;99.90;;;;;;5075965;28;20211;-61
2023/11/22 07:58:16;;;;;;;6.35;4.30;;;1.20;99.90;;;;;;5077387;28;20205;-61
2023/11/22 08:00:43;;;;;;;4.55;4.15;;;1.30;99.90;;;;;;5076004;28;20216;-63
2023/11/22 08:03:09;;;;;;;4.57;4.00;;;1.40;99.90;;;;;;5074489;28;20228;-62
2023/11/22 08:05:39;;;;;;;6.25;4.20;;;1.40;99.90;;;;;;5074500;28;20589;-63
2023/11/22 08:08:07;;;;;;;4.10;3.70;;;1.40;99.90;;;;;;5073760;28;20682;-62
2023/11/22 08:10:35;;;;;;;5.45;4.82;;;1.50;99.90;;;;;;5073832;28;20208;-62
2023/11/22 08:13:03;;;;;;;6.70;3.97;;;1.50;99.90;;;;;;5073453;28;20216;-62
2023/11/22 08:15:31;;;;;;;6.15;3.85;;;1.50;99.90;;;;;;5073732;28;20205;-64
2023/11/22 08:17:58;;;;;;;5.60;3.83;;;1.50;99.90;;;;;;5074263;28;20208;-61
2023/11/22 08:20:25;;;;;;;5.97;3.85;;;1.50;99.90;;;;;;5073475;28;20201;-63
2023/11/22 08:22:52;;;;;;;9.85;5.28;;;1.50;99.90;;;;;;5073584;28;20213;-63
2023/11/22 08:25:19;;;;;;;16.27;5.45;;;1.50;99.90;;;;;;5073663;28;20675;-61
2023/11/22 08:27:45;;;;;;;8.30;4.22;;;1.50;99.90;;;;;;5073574;28;20216;-62
2023/11/22 08:30:15;;;;;;;12.00;5.18;;;1.50;99.90;;;;;;5073564;28;20200;-63
2023/11/22 08:32:42;;;;;;;11.73;4.63;;;1.50;99.90;;;;;;5073741;28;20228;-63
2023/11/22 08:35:10;;;;;;;11.90;5.68;;;1.60;99.90;;;;;;5075365;28;20201;-63
2023/11/22 08:37:38;;;;;;;12.85;5.30;;;1.70;99.90;;;;;;5079280;28;20204;-62
2023/11/22 08:40:07;;;;;;;11.15;5.35;;;1.80;99.90;;;;;;5072909;28;20689;-61
2023/11/22 08:42:35;;;;;;;12.18;5.20;;;1.90;99.90;;;;;;5072659;28;20687;-61
2023/11/22 08:45:02;;;;;;;15.90;6.25;;;2.00;99.90;;;;;;5073431;28;20201;-61
2023/11/22 08:47:31;;;;;;;22.33;6.72;;;2.10;99.90;;;;;;5073395;28;20197;-63
2023/11/22 08:49:58;;;;;;;18.42;6.03;;;2.20;99.90;;;;;;5073600;28;20231;-63
2023/11/22 08:52:25;;;;;;;18.67;5.00;;;2.20;99.90;;;;;;5073527;28;20224;-62
2023/11/22 08:54:52;;;;;;;14.55;5.57;;;2.40;99.90;;;;;;5073469;28;20197;-62
2023/11/22 08:57:20;;;;;;;8.43;4.50;;;2.40;99.90;;;;;;5074249;28;20205;-62
2023/11/22 08:59:47;;;;;;;8.27;4.60;;;2.50;99.90;;;;;;5077557;28;20266;-62
2023/11/22 09:02:14;;;;;;;11.15;4.07;;;2.50;99.90;;;;;;5076648;28;20617;-63
2023/11/22 09:04:42;;;;;;;6.70;3.72;;;2.50;99.90;;;;;;5080840;28;20560;-61
2023/11/22 09:07:11;;;;;;;9.23;4.70;;;2.50;99.90;;;;;;5079814;28;20197;-61
2023/11/22 09:09:37;;;;;;;7.13;3.80;;;2.50;99.90;;;;;;5080310;28;20212;-63
2023/11/22 09:12:12;;;;;;;6.60;4.30;;;2.50;99.90;;;;;;5080345;28;20257;-62
2023/11/22 09:14:40;;;;;;;4.88;3.72;;;2.60;99.90;;;;;;5081617;28;20270;-61
2023/11/22 09:17:07;;;;;;;3.70;3.40;;;2.60;99.90;;;;;;5079175;28;20205;-62
2023/11/22 09:19:33;;;;;;;4.63;4.15;;;2.60;99.90;;;;;;5076633;28;20212;-62
2023/11/22 09:22:02;;;;;;;4.50;3.30;;;2.70;99.90;;;;;;5077089;28;20217;-62
2023/11/22 09:24:28;;;;;;;5.03;3.67;;;2.70;99.90;;;;;;5076525;28;20208;-63
2023/11/22 09:26:55;;;;;;;4.63;3.50;;;2.80;99.90;;;;;;5076562;28;20201;-63
2023/11/22 09:29:23;;;;;;;6.28;4.00;;;2.80;99.90;;;;;;5076575;28;20601;-62
2023/11/22 09:31:52;;;;;;;5.55;4.20;;;2.80;99.90;;;;;;5076445;28;20225;-62
2023/11/22 09:34:19;;;;;;;4.03;3.38;;;2.90;99.90;;;;;;5076476;28;20197;-62
2023/11/22 09:36:46;;;;;;;5.60;3.33;;;3.00;99.90;;;;;;5076452;28;20201;-62
2023/11/22 09:39:14;;;;;;;4.90;3.75;;;3.00;99.90;;;;;;5076627;28;20293;-63
2023/11/22 09:41:41;;;;;;;6.82;4.10;;;3.10;99.90;;;;;;5076576;28;20221;-62
2023/11/22 09:44:10;;;;;;;5.72;4.00;;;3.10;99.90;;;;;;5076263;28;20197;-63
2023/11/22 09:46:40;;;;;;;7.45;3.40;;;3.20;99.90;;;;;;5078695;28;20211;-62
2023/11/22 09:49:09;;;;;;;4.15;3.75;;;3.20;99.90;;;;;;5081416;28;20201;-63
2023/11/22 09:51:38;;;;;;;4.05;3.65;;;3.30;99.90;;;;;;5079785;28;20232;-63
2023/11/22 09:54:09;;;;;;;5.38;4.68;;;3.30;99.90;;;;;;5077060;28;20225;-62
2023/11/22 09:56:37;;;;;;;6.85;4.38;;;3.30;99.90;;;;;;5076342;28;20188;-63
2023/11/22 09:59:05;;;;;;;5.22;4.38;;;3.40;99.90;;;;;;5076648;28;20246;-62
2023/11/22 10:01:33;;;;;;;7.10;4.40;;;3.40;99.90;;;;;;5075047;28;20247;-62
2023/11/22 10:04:00;;;;;;;5.15;4.10;;;3.50;99.90;;;;;;5076069;28;20197;-62
2023/11/22 10:06:31;;;;;;;4.80;3.78;;;3.50;99.90;;;;;;5075967;28;20201;-62
2023/11/22 10:08:57;;;;;;;5.80;4.03;;;3.50;99.90;;;;;;5075947;28;20190;-63
2023/11/22 10:11:24;;;;;;;5.20;4.15;;;3.60;99.90;;;;;;5075567;28;20721;-62
2023/11/22 10:13:52;;;;;;;5.72;4.63;;;3.60;99.90;;;;;;5075361;28;20217;-63
2023/11/22 10:16:20;;;;;;;5.63;4.22;;;3.70;99.90;;;;;;5075912;28;20208;-63
2023/11/22 10:18:48;;;;;;;5.78;4.78;;;3.70;99.90;;;;;;5076880;28;20201;-63
2023/11/22 10:21:23;;;;;;;5.75;4.40;;;3.70;99.90;;;;;;5075963;28;20221;-62
2023/11/22 10:23:52;;;;;;;5.97;4.32;;;3.70;99.90;;;;;;5075859;28;20247;-63
2023/11/22 10:26:19;;;;;;;6.47;5.32;;;3.70;99.90;;;;;;5075562;28;20201;-63
2023/11/22 10:28:46;;;;;;;8.43;4.38;;;3.60;99.90;;;;;;5076134;28;20224;-63
2023/11/22 10:31:14;;;;;;;5.10;4.60;;;3.60;99.90;;;;;;5074958;28;20594;-63
2023/11/22 10:33:43;;;;;;;6.22;4.15;;;3.60;99.90;;;;;;5075786;28;20244;-63
2023/11/22 10:36:12;;;;;;;9.60;5.10;;;3.60;99.90;;;;;;5075644;28;20212;-62
2023/11/22 10:38:39;;;;;;;5.63;4.82;;;3.70;99.90;;;;;;5075886;28;20303;-62
2023/11/22 10:41:07;;;;;;;4.07;3.58;;;3.80;99.90;;;;;;5076483;28;20221;-63
2023/11/22 10:43:36;;;;;;;6.00;4.57;;;3.90;99.90;;;;;;5087426;28;20245;-62
2023/11/22 10:46:04;;;;;;;5.80;4.30;;;3.80;99.90;;;;;;5076165;28;20205;-63
2023/11/22 10:48:33;;;;;;;5.03;4.30;;;3.80;99.90;;;;;;5074600;28;20678;-61
2023/11/22 10:51:03;;;;;;;7.68;5.05;;;3.70;99.90;;;;;;5074802;28;20247;-63
2023/11/22 10:53:34;;;;;;;7.00;4.78;;;3.70;99.90;;;;;;5074985;28;20316;-62
2023/11/22 10:56:05;;;;;;;6.70;4.90;;;3.70;99.90;;;;;;5075154;28;20680;-62
2023/11/22 10:58:35;;;;;;;10.07;4.75;;;3.60;99.90;;;;;;5074767;28;20224;-62
2023/11/22 11:01:06;;;;;;;8.95;6.38;;;3.60;99.90;;;;;;5074282;28;20220;-63
2023/11/22 11:03:41;;;;;;;5.90;4.43;;;3.60;99.90;;;;;;5074904;28;20182;-62
2023/11/22 11:06:13;;;;;;;9.63;4.22;;;3.60;99.90;;;;;;5074738;28;20273;-63
2023/11/22 11:08:42;;;;;;;8.23;4.90;;;3.50;99.90;;;;;;5074497;28;20722;-62
2023/11/22 11:11:08;;;;;;;6.00;4.72;;;3.60;99.90;;;;;;5074328;28;20221;-63
2023/11/22 11:13:35;;;;;;;7.13;4.80;;;3.60;99.90;;;;;;5073908;28;20575;-64
2023/11/22 11:16:02;;;;;;;11.45;5.85;;;3.60;99.90;;;;;;5074718;28;20220;-63
2023/11/22 11:18:30;;;;;;;10.10;6.20;;;3.70;99.90;;;;;;5074566;28;20699;-62
2023/11/22 11:20:59;;;;;;;9.77;5.25;;;3.80;99.90;;;;;;5073487;28;20706;-61
2023/11/22 11:23:27;;;;;;;8.98;5.25;;;3.90;99.90;;;;;;5074709;28;20556;-61
2023/11/22 11:25:54;;;;;;;6.55;4.53;;;4.10;99.90;;;;;;5074341;28;20208;-60
2023/11/22 11:28:22;;;;;;;5.63;4.80;;;4.20;99.90;;;;;;5073829;28;20674;-62
2023/11/22 11:30:50;;;;;;;6.30;4.85;;;4.40;99.90;;;;;;5074175;28;20755;-63
2023/11/22 11:33:19;;;;;;;5.70;4.50;;;4.50;99.90;;;;;;5074331;28;20225;-63
2023/11/22 11:35:48;;;;;;;10.32;5.47;;;4.50;99.90;;;;;;5074409;28;20208;-63
2023/11/22 11:38:20;;;;;;;7.57;5.25;;;4.50;99.90;;;;;;5074299;28;20227;-62
2023/11/22 11:40:48;;;;;;;7.68;5.15;;;4.60;99.90;;;;;;5074193;28;20612;-62
2023/11/22 11:43:15;;;;;;;10.00;5.40;;;4.60;99.90;;;;;;5074341;28;20201;-62
2023/11/22 11:45:45;;;;;;;7.72;6.07;;;4.60;99.90;;;;;;5074073;28;20687;-61
2023/11/22 11:48:14;;;;;;;10.77;5.97;;;4.70;99.90;;;;;;5073615;28;20192;-63
2023/11/22 11:50:41;;;;;;;9.18;5.30;;;4.70;99.90;;;;;;5073877;28;20198;-63
2023/11/22 11:53:08;;;;;;;5.78;4.55;;;4.70;99.90;;;;;;5073812;28;20221;-61
2023/11/22 11:55:36;;;;;;;6.85;5.25;;;4.60;99.90;;;;;;5073554;28;20678;-62
2023/11/22 11:58:07;;;;;;;5.72;4.65;;;4.60;99.70;;;;;;5073980;28;20273;-63
2023/11/22 12:00:34;;;;;;;4.72;4.30;;;4.60;99.50;;;;;;5073627;28;20189;-62
2023/11/22 12:03:01;;;;;;;7.95;5.60;;;4.80;99.10;;;;;;5073016;28;20741;-62
2023/11/22 12:05:28;;;;;;;5.40;4.00;;;4.80;98.20;;;;;;5073612;28;20228;-62
2023/11/22 12:07:56;;;;;;;6.25;4.38;;;4.80;97.60;;;;;;5073734;28;20205;-63
2023/11/22 12:10:24;;;;;;;5.38;4.47;;;4.80;97.30;;;;;;5073929;28;20232;-63
2023/11/22 12:12:52;;;;;;;5.55;4.88;;;4.90;96.90;;;;;;5074219;28;20298;-62
2023/11/22 12:15:19;;;;;;;8.15;4.60;;;5.00;96.40;;;;;;5076370;28;20555;-62
2023/11/22 12:17:49;;;;;;;6.22;5.18;;;5.00;96.10;;;;;;5078125;28;20666;-63
2023/11/22 12:20:17;;;;;;;10.90;5.60;;;5.00;95.50;;;;;;5076256;28;20296;-62
2023/11/22 12:22:44;;;;;;;6.53;4.97;;;5.00;95.20;;;;;;5074350;28;20769;-63
2023/11/22 12:25:12;;;;;;;6.03;5.20;;;5.00;94.60;;;;;;5074418;28;20204;-62
2023/11/22 12:27:44;;;;;;;6.25;4.45;;;5.00;94.20;;;;;;5073595;28;20212;-63
2023/11/22 12:30:29;;;;;;;8.20;4.85;;;5.00;94.10;;;;;;5074249;28;20194;-63
2023/11/22 12:32:56;;;;;;;9.13;5.57;;;5.00;93.70;;;;;;5075322;28;20290;-65
2023/11/22 12:35:24;;;;;;;8.32;5.25;;;5.00;93.50;;;;;;5078795;28;20204;-62
2023/11/22 12:37:51;;;;;;;4.97;4.43;;;5.00;92.90;;;;;;5077777;28;20274;-62
2023/11/22 12:40:20;;;;;;;8.90;5.40;;;4.90;92.80;;;;;;5077412;28;20208;-62
2023/11/22 12:42:52;;;;;;;6.80;5.60;;;4.90;92.80;;;;;;5077656;28;20221;-61
2023/11/22 12:45:23;;;;;;;6.00;5.05;;;4.80;92.50;;;;;;5077965;28;20284;-62
2023/11/22 12:47:50;;;;;;;7.57;5.70;;;4.80;92.40;;;;;;5077568;28;20276;-63
2023/11/22 12:50:35;;;;;;;12.15;6.10;;;4.80;92.30;;;;;;5090874;28;20201;-62
2023/11/22 12:53:10;;;;;;;7.00;5.30;;;4.80;92.30;;;;;;5077594;28;20266;-64
2023/11/22 12:55:37;;;;;;;8.70;6.18;;;4.80;92.20;;;;;;5077528;28;20193;-63
2023/11/22 12:58:04;;;;;;;9.07;5.45;;;4.80;92.00;;;;;;5077110;28;20201;-63
2023/11/22 13:00:32;;;;;;;7.05;5.60;;;4.90;92.00;;;;;;5077305;28;20207;-61